createdAt,value
2022-09-11T00:03:24.574Z,88.99
2022-09-11T00:08:27.373Z,88.87
2022-09-11T00:13:29.055Z,88.72
2022-09-11T00:18:31.123Z,88.70
2022-09-11T00:23:33.323Z,88.81
2022-09-11T00:28:36.992Z,88.25
2022-09-11T00:33:39.709Z,87.92
2022-09-11T00:38:42.847Z,88.00
2022-09-11T00:43:52.249Z,88.18
2022-09-11T00:48:55.855Z,88.08
2022-09-11T00:53:58.697Z,87.45
2022-09-11T00:59:01.191Z,87.38
2022-09-11T01:04:05.639Z,87.50
2022-09-11T01:09:07.380Z,87.68
2022-09-11T01:14:37.894Z,87.76
2022-09-11T01:20:09.142Z,88.08
2022-09-11T01:25:29.090Z,88.31
2022-09-11T01:30:41.021Z,88.49
2022-09-11T01:35:49.295Z,88.86
2022-09-11T01:41:02.557Z,89.23
2022-09-11T01:46:07.942Z,89.15
2022-09-11T01:51:18.790Z,88.96
2022-09-11T01:56:26.107Z,88.62
2022-09-11T02:01:32.941Z,88.56
2022-09-11T02:06:42.321Z,88.35
2022-09-11T02:11:48.528Z,88.67
2022-09-11T02:17:31.615Z,88.72
2022-09-11T02:22:33.637Z,89.07
2022-09-11T02:27:36.965Z,89.04
2022-09-11T02:32:40.832Z,89.23
2022-09-11T02:38:06.357Z,88.88
2022-09-11T02:43:20.094Z,89.05
2022-09-11T02:48:36.453Z,88.88
2022-09-11T02:54:27.890Z,89.44
2022-09-11T02:59:39.905Z,89.30
2022-09-11T03:04:45.525Z,89.17
2022-09-11T03:09:47.274Z,89.14
2022-09-11T03:14:54.881Z,89.35
2022-09-11T03:19:56.895Z,88.96
2022-09-11T03:24:59.199Z,89.36
2022-09-11T03:30:03.574Z,89.51
2022-09-11T03:35:06.198Z,89.77
2022-09-11T03:40:08.480Z,90.29
2022-09-11T03:45:11.980Z,90.91
2022-09-11T03:50:14.135Z,91.97
2022-09-11T03:55:16.611Z,92.59
2022-09-11T04:00:18.483Z,93.36
2022-09-11T04:05:26.157Z,93.96
2022-09-11T04:10:29.005Z,94.29
2022-09-11T04:15:33.354Z,94.69
2022-09-11T04:20:39.537Z,94.56
2022-09-11T04:25:41.366Z,94.70
2022-09-11T04:30:43.114Z,94.54
2022-09-11T04:35:45.256Z,94.16
2022-09-11T04:40:47.759Z,94.62
2022-09-11T04:45:49.651Z,94.58
2022-09-11T04:51:04.814Z,94.67
2022-09-11T04:56:10.447Z,94.71
2022-09-11T05:01:17.534Z,94.38
2022-09-11T05:06:24.858Z,94.64
2022-09-11T05:11:27.871Z,95.08
2022-09-11T05:16:31.539Z,95.67
2022-09-11T05:21:34.126Z,95.99
2022-09-11T05:26:37.931Z,96.65
2022-09-11T05:31:42.282Z,96.61
2022-09-11T05:36:45.879Z,97.46
2022-09-11T05:41:51.456Z,97.81
2022-09-11T05:46:53.293Z,99.01
2022-09-11T05:51:55.097Z,99.88
2022-09-11T05:56:58.782Z,100.00
2022-09-11T06:02:01.772Z,100.00
2022-09-11T06:07:12.982Z,100.00
2022-09-11T06:12:19.074Z,100.00
2022-09-11T06:17:23.182Z,100.00
2022-09-11T06:22:29.280Z,100.00
2022-09-11T06:27:31.314Z,100.00
2022-09-11T06:32:33.294Z,100.00
2022-09-11T06:37:35.767Z,100.00
2022-09-11T06:42:37.609Z,100.00
2022-09-11T06:47:39.338Z,100.00
2022-09-11T06:52:41.524Z,100.00
2022-09-11T06:57:50.015Z,100.00
2022-09-11T07:02:57.250Z,100.00
2022-09-11T07:08:00.049Z,100.00
2022-09-11T07:13:06.105Z,100.00
2022-09-11T07:18:08.523Z,100.00
2022-09-11T07:23:10.798Z,100.00
2022-09-11T07:28:12.516Z,100.00
2022-09-11T07:33:15.871Z,100.00
2022-09-11T07:38:18.531Z,100.00
2022-09-11T07:43:21.330Z,100.00
2022-09-11T07:48:23.096Z,100.00
2022-09-11T07:53:25.843Z,100.00
2022-09-11T07:58:27.657Z,100.00
2022-09-11T08:03:31.110Z,100.00
2022-09-11T08:08:33.025Z,100.00
2022-09-11T08:13:35.810Z,100.00
2022-09-11T08:18:37.901Z,100.00
2022-09-11T08:23:42.567Z,100.00
2022-09-11T08:28:45.760Z,100.00
2022-09-11T08:33:49.237Z,100.00
2022-09-11T08:38:52.666Z,100.00
2022-09-11T08:44:06.545Z,100.00
2022-09-11T08:49:15.804Z,100.00
2022-09-11T08:54:31.920Z,100.00
2022-09-11T08:59:50.360Z,100.00
2022-09-11T09:04:55.330Z,100.00
2022-09-11T09:10:19.753Z,100.00
2022-09-11T09:15:42.342Z,100.00
2022-09-11T09:20:50.079Z,100.00
2022-09-11T09:25:55.918Z,100.00
2022-09-11T09:31:03.910Z,100.00
2022-09-11T09:36:29.075Z,99.10
2022-09-11T09:41:46.219Z,100.00
2022-09-11T09:46:51.946Z,96.41
2022-09-11T09:51:59.818Z,98.17
2022-09-11T09:57:10.492Z,97.04
2022-09-11T10:02:12.387Z,97.02
2022-09-11T10:07:21.719Z,93.65
2022-09-11T10:12:27.249Z,93.34
2022-09-11T10:17:32.314Z,93.48
2022-09-11T10:22:34.072Z,90.83
2022-09-11T10:27:44.381Z,91.11
2022-09-11T10:32:46.175Z,91.26
2022-09-11T10:38:00.475Z,89.61
2022-09-11T10:43:02.992Z,89.95
2022-09-11T10:48:15.158Z,88.85
2022-09-11T10:53:23.186Z,87.76
2022-09-11T10:58:31.087Z,88.38
2022-09-11T11:03:33.066Z,86.78
2022-09-11T11:08:57.924Z,84.98
2022-09-11T11:14:28.726Z,86.23
2022-09-11T11:19:41.057Z,85.60
2022-09-11T11:24:46.558Z,83.15
2022-09-11T11:30:15.670Z,82.62
2022-09-11T11:35:21.487Z,82.10
2022-09-11T11:40:40.478Z,81.81
2022-09-11T11:45:47.046Z,82.23
2022-09-11T11:51:04.662Z,82.23
2022-09-11T11:56:36.035Z,81.44
2022-09-11T12:01:37.839Z,81.32
2022-09-11T12:06:39.635Z,80.91
2022-09-11T12:11:45.803Z,80.88
2022-09-11T12:16:49.275Z,80.96
2022-09-11T12:21:54.017Z,81.14
2022-09-11T12:27:34.377Z,79.59
2022-09-11T12:32:47.900Z,80.58
2022-09-11T12:38:10.210Z,78.74
2022-09-11T12:43:35.412Z,75.81
2022-09-11T12:49:25.801Z,75.20
2022-09-11T12:54:42.442Z,74.45
2022-09-11T12:59:52.457Z,71.78
2022-09-11T13:04:55.227Z,71.15
2022-09-11T13:10:03.138Z,72.39
2022-09-11T13:15:05.274Z,70.62
2022-09-11T13:20:08.261Z,71.51
2022-09-11T13:25:16.200Z,73.19
2022-09-11T13:30:21.624Z,73.95
2022-09-11T13:35:28.651Z,74.46
2022-09-11T13:40:52.348Z,75.45
2022-09-11T13:46:11.027Z,74.12
2022-09-11T13:51:31.763Z,70.35
2022-09-11T13:56:45.173Z,67.42
2022-09-11T14:02:00.804Z,65.77
2022-09-11T14:07:02.840Z,64.24
2022-09-11T14:12:04.766Z,65.69
2022-09-11T14:17:10.702Z,66.49
2022-09-11T14:22:27.044Z,68.22
2022-09-11T14:27:34.881Z,69.88
2022-09-11T14:32:39.055Z,69.79
2022-09-11T14:37:45.746Z,68.84
2022-09-11T14:42:48.231Z,68.83
2022-09-11T14:47:50.999Z,68.93
2022-09-11T14:52:52.751Z,68.74
2022-09-11T14:57:54.435Z,67.91
2022-09-11T15:02:56.214Z,66.72
2022-09-11T15:08:00.435Z,65.20
2022-09-11T15:13:03.002Z,64.89
2022-09-11T15:18:07.370Z,64.69
2022-09-11T15:23:09.262Z,65.13
2022-09-11T15:28:10.971Z,65.97
2022-09-11T15:33:12.622Z,67.22
2022-09-11T15:38:14.467Z,67.05
2022-09-11T15:43:16.379Z,66.83
2022-09-11T15:48:19.409Z,65.23
2022-09-11T15:53:21.570Z,64.29
2022-09-11T15:58:23.315Z,64.92
2022-09-11T16:03:25.370Z,65.57
2022-09-11T16:08:27.820Z,65.99
2022-09-11T16:13:31.606Z,65.79
2022-09-11T16:18:38.424Z,66.91
2022-09-11T16:23:40.999Z,66.04
2022-09-11T16:28:42.908Z,67.25
2022-09-11T16:33:45.064Z,67.93
2022-09-11T16:38:49.914Z,67.35
2022-09-11T16:43:52.679Z,67.74
2022-09-11T16:48:57.765Z,68.44
2022-09-11T16:54:04.101Z,69.12
2022-09-11T16:59:06.410Z,68.82
2022-09-11T17:04:08.126Z,69.46
2022-09-11T17:09:09.836Z,69.50
2022-09-11T17:14:11.874Z,69.42
2022-09-11T17:19:13.502Z,69.84
2022-09-11T17:24:17.923Z,70.33
2022-09-11T17:29:20.106Z,71.02
2022-09-11T17:34:21.758Z,72.48
2022-09-11T17:39:23.462Z,74.68
2022-09-11T17:44:25.188Z,75.90
2022-09-11T17:49:27.171Z,76.70
2022-09-11T17:54:28.899Z,77.26
2022-09-11T17:59:30.548Z,78.79
2022-09-11T18:04:32.185Z,80.44
2022-09-11T18:09:33.867Z,81.57
2022-09-11T18:14:40.349Z,82.16
2022-09-11T18:19:42.344Z,82.29
2022-09-11T18:24:44.354Z,83.09
2022-09-11T18:29:46.082Z,83.61
2022-09-11T18:34:48.453Z,83.55
2022-09-11T18:39:50.202Z,83.67
2022-09-11T18:44:51.856Z,83.57
2022-09-11T18:49:53.475Z,83.95
2022-09-11T18:54:55.286Z,84.22
2022-09-11T18:59:57.057Z,84.62
2022-09-11T19:05:00.207Z,84.58
2022-09-11T19:10:01.900Z,85.22
2022-09-11T19:15:04.022Z,86.15
2022-09-11T19:20:12.125Z,86.39
2022-09-11T19:25:15.213Z,86.87
2022-09-11T19:30:17.356Z,86.59
2022-09-11T19:35:19.356Z,87.01
2022-09-11T19:40:21.105Z,87.69
2022-09-11T19:45:22.902Z,87.28
2022-09-11T19:50:24.670Z,87.65
2022-09-11T19:55:26.510Z,88.09
2022-09-11T20:00:29.430Z,87.86
2022-09-11T20:05:31.581Z,87.66
2022-09-11T20:10:33.845Z,87.70
2022-09-11T20:15:36.139Z,88.28
2022-09-11T20:20:43.390Z,88.23
2022-09-11T20:25:46.936Z,88.34
2022-09-11T20:30:48.717Z,88.94
2022-09-11T20:35:50.352Z,88.50
2022-09-11T20:40:52.001Z,88.31
2022-09-11T20:45:54.386Z,88.97
2022-09-11T20:51:03.841Z,89.18
2022-09-11T20:56:11.057Z,88.05
2022-09-11T21:01:16.358Z,87.43
2022-09-11T21:06:23.433Z,87.80
2022-09-11T21:11:29.616Z,88.27
2022-09-11T21:16:31.656Z,88.17
2022-09-11T21:21:35.240Z,88.11
2022-09-11T21:26:37.318Z,88.19
2022-09-11T21:31:39.308Z,87.58
2022-09-11T21:36:42.404Z,88.37
2022-09-11T21:41:44.119Z,88.65
2022-09-11T21:46:45.820Z,88.83
2022-09-11T21:51:47.541Z,88.60
2022-09-11T21:56:49.214Z,87.99
2022-09-11T22:01:51.046Z,88.23
2022-09-11T22:06:54.585Z,87.43
2022-09-11T22:11:59.795Z,87.63
2022-09-11T22:17:01.802Z,87.43
2022-09-11T22:22:03.839Z,87.61
2022-09-11T22:27:07.202Z,87.46
2022-09-11T22:32:08.858Z,87.76
2022-09-11T22:37:10.470Z,87.76
2022-09-11T22:42:12.088Z,87.58
2022-09-11T22:47:13.734Z,86.92
2022-09-11T22:52:15.585Z,86.80
2022-09-11T22:57:17.345Z,87.10
2022-09-11T23:02:19.106Z,86.80
2022-09-11T23:07:20.871Z,86.68
2022-09-11T23:12:22.688Z,86.53
2022-09-11T23:17:24.345Z,87.10
2022-09-11T23:22:26.989Z,87.32
2022-09-11T23:27:28.858Z,87.09
2022-09-11T23:32:30.973Z,87.19
2022-09-11T23:37:34.286Z,85.88
2022-09-11T23:42:35.967Z,86.36
2022-09-11T23:47:37.606Z,86.39
2022-09-11T23:52:39.575Z,86.08
2022-09-11T23:57:41.313Z,85.93
